sensor_id;sensor_type;location;lat;lon;timestamp;pressure;altitude;pressure_sealevel;temperature;humidity
11971;BME280;6045;42.682;23.294;2023-05-08T00:01:37;94798.63;;;15.64;68.30
11971;BME280;6045;42.682;23.294;2023-05-08T00:04:04;94801.69;;;15.46;68.53
11971;BME280;6045;42.682;23.294;2023-05-08T00:06:32;94803.44;;;15.36;69.56
11971;BME280;6045;42.682;23.294;2023-05-08T00:08:58;94806.13;;;15.31;69.40
11971;BME280;6045;42.682;23.294;2023-05-08T00:11:25;94798.59;;;15.33;69.81
11971;BME280;6045;42.682;23.294;2023-05-08T00:13:52;94803.38;;;15.26;69.30
11971;BME280;6045;42.682;23.294;2023-05-08T00:16:18;94803.25;;;15.16;69.39
11971;BME280;6045;42.682;23.294;2023-05-08T00:18:45;94810.28;;;15.17;69.52
11971;BME280;6045;42.682;23.294;2023-05-08T00:21:12;94810.53;;;14.93;70.21
11971;BME280;6045;42.682;23.294;2023-05-08T00:23:40;94799.09;;;14.81;70.66
11971;BME280;6045;42.682;23.294;2023-05-08T00:26:07;94812.56;;;14.81;71.13
11971;BME280;6045;42.682;23.294;2023-05-08T00:28:34;94818.31;;;14.68;70.86
11971;BME280;6045;42.682;23.294;2023-05-08T00:31:01;94808.97;;;14.54;71.15
11971;BME280;6045;42.682;23.294;2023-05-08T00:33:27;94814.28;;;14.49;71.71
11971;BME280;6045;42.682;23.294;2023-05-08T00:35:58;94815.41;;;14.53;71.60
11971;BME280;6045;42.682;23.294;2023-05-08T00:38:25;94816.84;;;14.61;72.48
11971;BME280;6045;42.682;23.294;2023-05-08T00:40:53;94815.88;;;14.67;72.70
11971;BME280;6045;42.682;23.294;2023-05-08T00:43:20;94819.19;;;14.74;72.73
11971;BME280;6045;42.682;23.294;2023-05-08T00:45:50;94813.56;;;14.75;71.82
11971;BME280;6045;42.682;23.294;2023-05-08T00:48:17;94812.56;;;14.81;71.74
11971;BME280;6045;42.682;23.294;2023-05-08T00:50:44;94809.13;;;14.86;71.68
11971;BME280;6045;42.682;23.294;2023-05-08T00:53:11;94816.94;;;14.87;71.54
11971;BME280;6045;42.682;23.294;2023-05-08T00:55:38;94819.34;;;14.89;71.60
11971;BME280;6045;42.682;23.294;2023-05-08T00:58:06;94821.81;;;14.90;71.79
11971;BME280;6045;42.682;23.294;2023-05-08T01:00:33;94820.19;;;14.89;71.09
11971;BME280;6045;42.682;23.294;2023-05-08T01:03:00;94823.94;;;14.88;71.44
11971;BME280;6045;42.682;23.294;2023-05-08T01:05:27;94828.50;;;14.88;72.04
11971;BME280;6045;42.682;23.294;2023-05-08T01:07:54;94821.50;;;14.87;72.13
11971;BME280;6045;42.682;23.294;2023-05-08T01:10:21;94832.44;;;14.80;72.09
11971;BME280;6045;42.682;23.294;2023-05-08T01:13:00;94819.25;;;14.79;71.68
11971;BME280;6045;42.682;23.294;2023-05-08T01:15:40;94829.44;;;14.77;72.01
11971;BME280;6045;42.682;23.294;2023-05-08T01:18:13;94829.13;;;14.73;71.89
11971;BME280;6045;42.682;23.294;2023-05-08T01:20:47;94832.25;;;14.65;71.94
11971;BME280;6045;42.682;23.294;2023-05-08T01:23:33;94823.63;;;14.63;71.90
11971;BME280;6045;42.682;23.294;2023-05-08T01:26:16;94830.56;;;14.59;72.61
11971;BME280;6045;42.682;23.294;2023-05-08T01:32:00;94823.28;;;14.38;73.05
11971;BME280;6045;42.682;23.294;2023-05-08T01:34:31;94823.03;;;14.39;72.82
11971;BME280;6045;42.682;23.294;2023-05-08T01:37:00;94819.84;;;14.43;72.92
11971;BME280;6045;42.682;23.294;2023-05-08T01:39:35;94813.97;;;14.46;73.04
11971;BME280;6045;42.682;23.294;2023-05-08T01:42:08;94813.72;;;14.47;72.56
11971;BME280;6045;42.682;23.294;2023-05-08T01:44:43;94809.16;;;14.48;72.58
11971;BME280;6045;42.682;23.294;2023-05-08T01:47:13;94814.47;;;14.43;73.14
11971;BME280;6045;42.682;23.294;2023-05-08T01:49:43;94817.91;;;14.38;71.97
11971;BME280;6045;42.682;23.294;2023-05-08T01:52:15;94818.81;;;14.27;72.36
11971;BME280;6045;42.682;23.294;2023-05-08T01:54:49;94813.34;;;14.22;72.85
11971;BME280;6045;42.682;23.294;2023-05-08T01:57:18;94811.72;;;14.21;72.70
11971;BME280;6045;42.682;23.294;2023-05-08T01:59:48;94819.63;;;14.11;72.31
11971;BME280;6045;42.682;23.294;2023-05-08T02:02:19;94818.56;;;14.12;73.53
11971;BME280;6045;42.682;23.294;2023-05-08T02:04:48;94817.28;;;14.14;73.71
11971;BME280;6045;42.682;23.294;2023-05-08T02:07:16;94814.59;;;14.14;73.66
11971;BME280;6045;42.682;23.294;2023-05-08T02:09:45;94812.47;;;14.16;73.82
11971;BME280;6045;42.682;23.294;2023-05-08T02:12:13;94809.28;;;14.19;73.57
11971;BME280;6045;42.682;23.294;2023-05-08T02:14:42;94814.19;;;14.22;73.88
11971;BME280;6045;42.682;23.294;2023-05-08T02:17:11;94818.47;;;14.23;73.49
11971;BME280;6045;42.682;23.294;2023-05-08T02:19:42;94819.03;;;14.25;73.65
11971;BME280;6045;42.682;23.294;2023-05-08T02:22:10;94824.41;;;14.25;73.59
11971;BME280;6045;42.682;23.294;2023-05-08T02:24:37;94818.81;;;14.27;73.42
11971;BME280;6045;42.682;23.294;2023-05-08T02:27:05;94816.13;;;14.27;73.58
11971;BME280;6045;42.682;23.294;2023-05-08T02:29:35;94821.16;;;14.23;72.93
11971;BME280;6045;42.682;23.294;2023-05-08T02:32:03;94818.47;;;14.23;73.33
11971;BME280;6045;42.682;23.294;2023-05-08T02:34:30;94824.66;;;14.24;73.06
11971;BME280;6045;42.682;23.294;2023-05-08T02:37:00;94815.78;;;14.23;73.19
11971;BME280;6045;42.682;23.294;2023-05-08T02:39:29;94820.34;;;14.23;73.17
11971;BME280;6045;42.682;23.294;2023-05-08T02:41:57;94824.94;;;14.22;73.43
11971;BME280;6045;42.682;23.294;2023-05-08T02:44:24;94826.72;;;14.17;73.61
11971;BME280;6045;42.682;23.294;2023-05-08T02:46:56;94823.38;;;14.10;73.59
11971;BME280;6045;42.682;23.294;2023-05-08T02:49:28;94824.22;;;14.10;73.59
11971;BME280;6045;42.682;23.294;2023-05-08T02:52:04;94826.91;;;14.10;73.83
11971;BME280;6045;42.682;23.294;2023-05-08T02:54:36;94837.38;;;14.12;73.77
11971;BME280;6045;42.682;23.294;2023-05-08T02:57:09;94825.59;;;14.13;74.20
11971;BME280;6045;42.682;23.294;2023-05-08T02:59:43;94821.25;;;14.12;74.20
11971;BME280;6045;42.682;23.294;2023-05-08T03:02:13;94832.84;;;14.12;73.91
11971;BME280;6045;42.682;23.294;2023-05-08T03:04:46;94835.03;;;14.15;73.63
11971;BME280;6045;42.682;23.294;2023-05-08T03:07:15;94830.97;;;14.13;74.01
11971;BME280;6045;42.682;23.294;2023-05-08T03:09:47;94827.19;;;14.14;73.53
11971;BME280;6045;42.682;23.294;2023-05-08T03:12:23;94834.44;;;14.13;73.64
11971;BME280;6045;42.682;23.294;2023-05-08T03:14:58;94827.19;;;14.14;73.44
11971;BME280;6045;42.682;23.294;2023-05-08T03:17:27;94829.06;;;14.13;73.59
11971;BME280;6045;42.682;23.294;2023-05-08T03:19:59;94837.94;;;14.14;73.00
11971;BME280;6045;42.682;23.294;2023-05-08T03:22:30;94835.81;;;14.16;73.16
11971;BME280;6045;42.682;23.294;2023-05-08T03:24:59;94836.38;;;14.18;72.84
11971;BME280;6045;42.682;23.294;2023-05-08T03:27:27;94838.03;;;14.19;72.91
11971;BME280;6045;42.682;23.294;2023-05-08T03:29:56;94835.69;;;14.22;72.70
11971;BME280;6045;42.682;23.294;2023-05-08T03:32:25;94834.88;;;14.22;73.49
11971;BME280;6045;42.682;23.294;2023-05-08T03:34:54;94838.19;;;14.29;72.86
11971;BME280;6045;42.682;23.294;2023-05-08T03:37:21;94844.16;;;14.31;72.85
11971;BME280;6045;42.682;23.294;2023-05-08T03:39:49;94843.69;;;14.34;73.04
11971;BME280;6045;42.682;23.294;2023-05-08T03:42:16;94846.19;;;14.41;73.03
11971;BME280;6045;42.682;23.294;2023-05-08T03:44:47;94840.88;;;14.46;72.67
11971;BME280;6045;42.682;23.294;2023-05-08T03:47:16;94838.50;;;14.49;72.55
11971;BME280;6045;42.682;23.294;2023-05-08T03:49:44;94840.75;;;14.57;72.48
11971;BME280;6045;42.682;23.294;2023-05-08T03:52:11;94842.22;;;14.65;72.29
11971;BME280;6045;42.682;23.294;2023-05-08T03:54:38;94841.47;;;14.69;71.38
11971;BME280;6045;42.682;23.294;2023-05-08T03:57:07;94846.84;;;14.69;70.48
11971;BME280;6045;42.682;23.294;2023-05-08T03:59:41;94842.09;;;14.76;70.37
11971;BME280;6045;42.682;23.294;2023-05-08T04:02:16;94857.56;;;14.86;69.58
11971;BME280;6045;42.682;23.294;2023-05-08T04:04:48;94855.22;;;14.94;70.40
11971;BME280;6045;42.682;23.294;2023-05-08T04:07:22;94851.53;;;15.00;70.47
11971;BME280;6045;42.682;23.294;2023-05-08T04:09:55;94854.53;;;15.04;70.10
11971;BME280;6045;42.682;23.294;2023-05-08T04:12:32;94858.63;;;15.06;69.35
11971;BME280;6045;42.682;23.294;2023-05-08T04:15:06;94860.06;;;15.14;67.78
11971;BME280;6045;42.682;23.294;2023-05-08T04:17:38;94866.75;;;15.12;67.54
11971;BME280;6045;42.682;23.294;2023-05-08T04:20:09;94861.59;;;15.10;68.17
11971;BME280;6045;42.682;23.294;2023-05-08T04:22:38;94865.13;;;15.11;67.73
11971;BME280;6045;42.682;23.294;2023-05-08T04:25:07;94866.84;;;15.22;66.67
11971;BME280;6045;42.682;23.294;2023-05-08T04:27:36;94867.81;;;15.11;65.97
11971;BME280;6045;42.682;23.294;2023-05-08T04:30:05;94871.44;;;14.99;66.04
11971;BME280;6045;42.682;23.294;2023-05-08T04:32:32;94863.38;;;14.99;67.08
11971;BME280;6045;42.682;23.294;2023-05-08T04:35:01;94865.31;;;15.04;67.21
11971;BME280;6045;42.682;23.294;2023-05-08T04:37:29;94869.88;;;15.03;67.55
11971;BME280;6045;42.682;23.294;2023-05-08T04:39:56;94864.69;;;14.97;65.45
11971;BME280;6045;42.682;23.294;2023-05-08T04:42:23;94866.88;;;14.78;66.71
11971;BME280;6045;42.682;23.294;2023-05-08T04:44:52;94854.59;;;14.66;68.34
11971;BME280;6045;42.682;23.294;2023-05-08T04:47:19;94861.09;;;14.70;68.52
11971;BME280;6045;42.682;23.294;2023-05-08T04:49:46;94853.34;;;14.73;67.38
11971;BME280;6045;42.682;23.294;2023-05-08T04:52:13;94860.06;;;14.92;65.86
11971;BME280;6045;42.682;23.294;2023-05-08T04:54:39;94856.75;;;14.85;65.38
11971;BME280;6045;42.682;23.294;2023-05-08T04:57:06;94854.13;;;14.90;65.46
11971;BME280;6045;42.682;23.294;2023-05-08T04:59:33;94850.22;;;15.03;66.81
11971;BME280;6045;42.682;23.294;2023-05-08T05:02:01;94849.13;;;15.26;66.68
11971;BME280;6045;42.682;23.294;2023-05-08T05:04:30;94846.19;;;15.49;65.78
11971;BME280;6045;42.682;23.294;2023-05-08T05:06:56;94848.88;;;15.76;65.85
11971;BME280;6045;42.682;23.294;2023-05-08T05:09:23;94843.13;;;15.99;64.41
11971;BME280;6045;42.682;23.294;2023-05-08T05:11:50;94841.34;;;16.14;64.00
11971;BME280;6045;42.682;23.294;2023-05-08T05:14:17;94836.53;;;16.58;70.97
11971;BME280;6045;42.682;23.294;2023-05-08T05:16:44;94839.88;;;16.75;65.66
11971;BME280;6045;42.682;23.294;2023-05-08T05:19:12;94838.66;;;17.03;63.53
11971;BME280;6045;42.682;23.294;2023-05-08T05:21:39;94838.72;;;17.23;60.85
11971;BME280;6045;42.682;23.294;2023-05-08T05:24:06;94841.75;;;17.37;59.03
11971;BME280;6045;42.682;23.294;2023-05-08T05:26:33;94844.88;;;17.08;61.21
11971;BME280;6045;42.682;23.294;2023-05-08T05:29:00;94844.47;;;17.42;68.66
11971;BME280;6045;42.682;23.294;2023-05-08T05:31:27;94835.66;;;17.87;67.63
11971;BME280;6045;42.682;23.294;2023-05-08T05:33:54;94841.06;;;18.32;66.95
11971;BME280;6045;42.682;23.294;2023-05-08T05:36:23;94841.56;;;18.64;64.16
11971;BME280;6045;42.682;23.294;2023-05-08T05:38:49;94837.72;;;18.90;59.51
11971;BME280;6045;42.682;23.294;2023-05-08T05:41:16;94837.59;;;19.16;62.41
11971;BME280;6045;42.682;23.294;2023-05-08T05:43:43;94829.59;;;19.54;59.04
11971;BME280;6045;42.682;23.294;2023-05-08T05:46:09;94836.72;;;19.84;59.22
11971;BME280;6045;42.682;23.294;2023-05-08T05:48:36;94839.56;;;20.03;56.80
11971;BME280;6045;42.682;23.294;2023-05-08T05:51:03;94832.84;;;20.34;59.38
11971;BME280;6045;42.682;23.294;2023-05-08T05:53:31;94841.59;;;20.26;53.06
11971;BME280;6045;42.682;23.294;2023-05-08T05:55:58;94834.09;;;20.08;52.21
11971;BME280;6045;42.682;23.294;2023-05-08T05:58:25;94834.59;;;20.15;55.92
11971;BME280;6045;42.682;23.294;2023-05-08T06:00:52;94825.78;;;19.99;55.51
11971;BME280;6045;42.682;23.294;2023-05-08T06:03:20;94818.81;;;20.22;54.56
11971;BME280;6045;42.682;23.294;2023-05-08T06:05:46;94823.88;;;20.33;51.04
11971;BME280;6045;42.682;23.294;2023-05-08T06:08:13;94824.13;;;19.98;52.67
11971;BME280;6045;42.682;23.294;2023-05-08T06:10:43;94821.31;;;20.13;52.26
11971;BME280;6045;42.682;23.294;2023-05-08T06:13:09;94827.22;;;20.25;51.42
11971;BME280;6045;42.682;23.294;2023-05-08T06:15:39;94821.69;;;20.35;52.72
11971;BME280;6045;42.682;23.294;2023-05-08T06:18:06;94818.44;;;20.33;52.34
11971;BME280;6045;42.682;23.294;2023-05-08T06:20:33;94824.31;;;20.45;52.99
11971;BME280;6045;42.682;23.294;2023-05-08T06:23:02;94818.75;;;20.61;53.34
11971;BME280;6045;42.682;23.294;2023-05-08T06:25:29;94822.25;;;20.61;54.35
11971;BME280;6045;42.682;23.294;2023-05-08T06:27:57;94820.75;;;20.74;53.78
11971;BME280;6045;42.682;23.294;2023-05-08T06:30:24;94818.22;;;20.82;53.10
11971;BME280;6045;42.682;23.294;2023-05-08T06:32:51;94817.44;;;20.82;51.36
11971;BME280;6045;42.682;23.294;2023-05-08T06:35:18;94827.94;;;20.65;51.46
11971;BME280;6045;42.682;23.294;2023-05-08T06:37:44;94831.56;;;20.55;52.04
11971;BME280;6045;42.682;23.294;2023-05-08T06:40:12;94827.16;;;20.59;51.58
11971;BME280;6045;42.682;23.294;2023-05-08T06:42:39;94822.41;;;20.75;52.26
11971;BME280;6045;42.682;23.294;2023-05-08T06:45:08;94827.59;;;20.95;51.42
11971;BME280;6045;42.682;23.294;2023-05-08T06:47:35;94826.13;;;21.50;52.68
11971;BME280;6045;42.682;23.294;2023-05-08T06:50:02;94823.31;;;21.97;52.07
11971;BME280;6045;42.682;23.294;2023-05-08T06:52:29;94821.91;;;22.00;46.86
11971;BME280;6045;42.682;23.294;2023-05-08T06:54:56;94822.56;;;21.92;47.05
11971;BME280;6045;42.682;23.294;2023-05-08T06:57:23;94827.91;;;21.59;46.95
11971;BME280;6045;42.682;23.294;2023-05-08T06:59:51;94827.09;;;21.40;49.38
11971;BME280;6045;42.682;23.294;2023-05-08T07:02:19;94827.38;;;21.15;47.83
11971;BME280;6045;42.682;23.294;2023-05-08T07:04:46;94836.50;;;21.00;51.77
11971;BME280;6045;42.682;23.294;2023-05-08T07:07:13;94839.72;;;21.07;51.54
11971;BME280;6045;42.682;23.294;2023-05-08T07:09:40;94835.88;;;21.08;50.60
11971;BME280;6045;42.682;23.294;2023-05-08T07:12:06;94837.53;;;21.09;50.77
11971;BME280;6045;42.682;23.294;2023-05-08T07:14:34;94832.69;;;21.01;50.43
11971;BME280;6045;42.682;23.294;2023-05-08T07:17:02;94839.75;;;21.02;51.05
11971;BME280;6045;42.682;23.294;2023-05-08T07:19:32;94838.31;;;20.86;51.34
11971;BME280;6045;42.682;23.294;2023-05-08T07:21:59;94835.03;;;20.61;51.80
11971;BME280;6045;42.682;23.294;2023-05-08T07:24:26;94836.13;;;20.60;53.55
11971;BME280;6045;42.682;23.294;2023-05-08T07:26:53;94833.03;;;20.95;52.42
11971;BME280;6045;42.682;23.294;2023-05-08T07:29:19;94829.41;;;21.28;51.74
11971;BME280;6045;42.682;23.294;2023-05-08T07:31:46;94836.00;;;21.64;50.76
11971;BME280;6045;42.682;23.294;2023-05-08T07:34:13;94832.56;;;21.96;49.23
11971;BME280;6045;42.682;23.294;2023-05-08T07:36:41;94831.53;;;22.11;49.30
11971;BME280;6045;42.682;23.294;2023-05-08T07:39:08;94835.59;;;21.95;47.47
11971;BME280;6045;42.682;23.294;2023-05-08T07:41:35;94836.81;;;21.83;49.89
11971;BME280;6045;42.682;23.294;2023-05-08T07:44:03;94830.66;;;21.97;49.20
11971;BME280;6045;42.682;23.294;2023-05-08T07:46:30;94841.53;;;22.15;49.33
11971;BME280;6045;42.682;23.294;2023-05-08T07:48:56;94828.72;;;22.48;48.62
11971;BME280;6045;42.682;23.294;2023-05-08T07:51:23;94840.94;;;22.69;47.86
11971;BME280;6045;42.682;23.294;2023-05-08T07:53:52;94837.94;;;23.11;48.34
11971;BME280;6045;42.682;23.294;2023-05-08T07:56:19;94838.38;;;23.59;43.58
11971;BME280;6045;42.682;23.294;2023-05-08T07:58:46;94845.31;;;24.15;44.15
11971;BME280;6045;42.682;23.294;2023-05-08T08:01:13;94845.22;;;24.42;43.33
11971;BME280;6045;42.682;23.294;2023-05-08T08:03:42;94843.22;;;24.34;44.04
11971;BME280;6045;42.682;23.294;2023-05-08T08:06:09;94844.72;;;24.18;42.37
11971;BME280;6045;42.682;23.294;2023-05-08T08:08:35;94846.34;;;24.05;44.42
11971;BME280;6045;42.682;23.294;2023-05-08T08:11:04;94834.97;;;24.47;42.74
11971;BME280;6045;42.682;23.294;2023-05-08T08:13:31;94846.50;;;24.67;43.10
11971;BME280;6045;42.682;23.294;2023-05-08T08:15:58;94840.22;;;24.66;42.55
11971;BME280;6045;42.682;23.294;2023-05-08T08:18:24;94840.38;;;24.61;43.15
11971;BME280;6045;42.682;23.294;2023-05-08T08:20:51;94836.25;;;24.72;42.63
11971;BME280;6045;42.682;23.294;2023-05-08T08:23:18;94836.19;;;24.64;41.86
11971;BME280;6045;42.682;23.294;2023-05-08T08:25:44;94837.44;;;24.58;43.28
11971;BME280;6045;42.682;23.294;2023-05-08T08:28:12;94842.63;;;24.37;43.88
11971;BME280;6045;42.682;23.294;2023-05-08T08:30:39;94832.44;;;24.51;44.30
11971;BME280;6045;42.682;23.294;2023-05-08T08:33:06;94834.72;;;24.58;43.46
11971;BME280;6045;42.682;23.294;2023-05-08T08:35:32;94826.75;;;24.47;43.05
11971;BME280;6045;42.682;23.294;2023-05-08T08:37:59;94826.28;;;24.23;43.31
11971;BME280;6045;42.682;23.294;2023-05-08T08:40:26;94813.41;;;24.24;45.13
11971;BME280;6045;42.682;23.294;2023-05-08T08:42:53;94817.06;;;24.19;45.17
11971;BME280;6045;42.682;23.294;2023-05-08T08:45:22;94808.34;;;23.95;45.98
11971;BME280;6045;42.682;23.294;2023-05-08T08:47:50;94810.81;;;24.05;44.92
11971;BME280;6045;42.682;23.294;2023-05-08T08:50:18;94809.31;;;24.13;45.16
11971;BME280;6045;42.682;23.294;2023-05-08T08:52:51;94805.53;;;24.22;45.93
11971;BME280;6045;42.682;23.294;2023-05-08T08:55:21;94801.50;;;24.42;45.36
11971;BME280;6045;42.682;23.294;2023-05-08T08:57:56;94801.63;;;24.37;45.01
11971;BME280;6045;42.682;23.294;2023-05-08T09:00:29;94794.47;;;24.49;45.04
11971;BME280;6045;42.682;23.294;2023-05-08T09:02:57;94787.50;;;24.21;44.65
11971;BME280;6045;42.682;23.294;2023-05-08T09:05:24;94789.38;;;24.12;43.85
11971;BME280;6045;42.682;23.294;2023-05-08T09:07:53;94782.28;;;23.89;44.75
11971;BME280;6045;42.682;23.294;2023-05-08T09:10:22;94780.69;;;23.74;46.06
11971;BME280;6045;42.682;23.294;2023-05-08T09:12:49;94769.81;;;23.61;46.41
11971;BME280;6045;42.682;23.294;2023-05-08T09:15:16;94768.03;;;23.43;46.48
11971;BME280;6045;42.682;23.294;2023-05-08T09:17:44;94756.44;;;23.37;47.28
11971;BME280;6045;42.682;23.294;2023-05-08T09:20:13;94756.09;;;23.25;48.10
11971;BME280;6045;42.682;23.294;2023-05-08T09:22:41;94742.69;;;23.29;47.89
11971;BME280;6045;42.682;23.294;2023-05-08T09:25:09;94745.59;;;23.32;47.35
11971;BME280;6045;42.682;23.294;2023-05-08T09:27:36;94736.31;;;23.33;46.88
11971;BME280;6045;42.682;23.294;2023-05-08T09:30:04;94743.38;;;23.21;46.56
11971;BME280;6045;42.682;23.294;2023-05-08T09:32:32;94753.81;;;23.19;47.41
11971;BME280;6045;42.682;23.294;2023-05-08T09:35:01;94758.34;;;23.23;48.33
11971;BME280;6045;42.682;23.294;2023-05-08T09:37:28;94752.47;;;23.30;48.85
11971;BME280;6045;42.682;23.294;2023-05-08T09:40:12;94756.94;;;23.39;48.87
11971;BME280;6045;42.682;23.294;2023-05-08T09:42:43;94769.47;;;23.40;49.16
11971;BME280;6045;42.682;23.294;2023-05-08T09:45:26;94776.91;;;23.48;49.69
11971;BME280;6045;42.682;23.294;2023-05-08T09:47:59;94778.84;;;23.48;48.47
11971;BME280;6045;42.682;23.294;2023-05-08T09:50:28;94771.81;;;23.69;49.45
11971;BME280;6045;42.682;23.294;2023-05-08T09:53:00;94765.13;;;23.75;48.50
11971;BME280;6045;42.682;23.294;2023-05-08T09:55:47;94771.00;;;24.04;47.52
11971;BME280;6045;42.682;23.294;2023-05-08T09:58:17;94770.50;;;24.24;47.41
11971;BME280;6045;42.682;23.294;2023-05-08T10:00:47;94766.91;;;24.15;48.10
11971;BME280;6045;42.682;23.294;2023-05-08T10:03:14;94761.44;;;24.37;46.21
11971;BME280;6045;42.682;23.294;2023-05-08T10:05:42;94768.22;;;24.40;47.11
11971;BME280;6045;42.682;23.294;2023-05-08T10:08:19;94764.03;;;24.42;46.90
11971;BME280;6045;42.682;23.294;2023-05-08T10:10:46;94765.66;;;24.43;46.05
11971;BME280;6045;42.682;23.294;2023-05-08T10:13:13;94762.19;;;24.52;45.99
11971;BME280;6045;42.682;23.294;2023-05-08T10:15:42;94752.72;;;24.58;47.13
11971;BME280;6045;42.682;23.294;2023-05-08T10:18:09;94758.66;;;24.60;46.77
11971;BME280;6045;42.682;23.294;2023-05-08T10:20:39;94754.03;;;24.69;47.91
11971;BME280;6045;42.682;23.294;2023-05-08T10:23:10;94749.16;;;24.79;47.13
11971;BME280;6045;42.682;23.294;2023-05-08T10:25:43;94743.34;;;24.81;45.94
11971;BME280;6045;42.682;23.294;2023-05-08T10:28:15;94739.03;;;24.58;45.95
11971;BME280;6045;42.682;23.294;2023-05-08T10:30:47;94741.03;;;24.66;46.00
11971;BME280;6045;42.682;23.294;2023-05-08T10:33:15;94736.16;;;24.54;46.66
11971;BME280;6045;42.682;23.294;2023-05-08T10:35:47;94745.31;;;24.89;47.09
11971;BME280;6045;42.682;23.294;2023-05-08T10:38:19;94738.75;;;25.72;44.39
11971;BME280;6045;42.682;23.294;2023-05-08T10:40:46;94723.13;;;25.98;44.93
11971;BME280;6045;42.682;23.294;2023-05-08T10:43:15;94729.22;;;26.38;44.09
11971;BME280;6045;42.682;23.294;2023-05-08T10:45:42;94729.88;;;26.98;42.45
11971;BME280;6045;42.682;23.294;2023-05-08T10:48:15;94726.69;;;27.55;41.65
11971;BME280;6045;42.682;23.294;2023-05-08T10:50:55;94716.31;;;28.02;40.05
11971;BME280;6045;42.682;23.294;2023-05-08T10:53:33;94714.06;;;28.16;39.12
11971;BME280;6045;42.682;23.294;2023-05-08T10:56:02;94713.81;;;28.41;39.25
11971;BME280;6045;42.682;23.294;2023-05-08T10:58:30;94721.25;;;28.74;38.71
11971;BME280;6045;42.682;23.294;2023-05-08T11:01:11;94720.88;;;29.20;38.08
11971;BME280;6045;42.682;23.294;2023-05-08T11:03:40;94711.81;;;29.44;36.95
11971;BME280;6045;42.682;23.294;2023-05-08T11:06:07;94711.91;;;29.35;38.25
11971;BME280;6045;42.682;23.294;2023-05-08T11:08:45;94702.69;;;29.67;36.56
11971;BME280;6045;42.682;23.294;2023-05-08T11:11:23;94690.84;;;29.91;35.59
11971;BME280;6045;42.682;23.294;2023-05-08T11:13:53;94684.31;;;30.11;35.51
11971;BME280;6045;42.682;23.294;2023-05-08T11:19:21;94691.41;;;29.85;36.22
11971;BME280;6045;42.682;23.294;2023-05-08T11:22:10;94687.28;;;29.91;36.07
11971;BME280;6045;42.682;23.294;2023-05-08T11:24:39;94683.22;;;29.48;34.94
11971;BME280;6045;42.682;23.294;2023-05-08T11:27:06;94680.69;;;29.43;35.57
11971;BME280;6045;42.682;23.294;2023-05-08T11:29:33;94673.13;;;28.92;35.97
11971;BME280;6045;42.682;23.294;2023-05-08T11:32:00;94672.88;;;28.73;36.79
11971;BME280;6045;42.682;23.294;2023-05-08T11:34:46;94667.47;;;28.76;36.82
11971;BME280;6045;42.682;23.294;2023-05-08T11:37:17;94660.03;;;28.65;36.35
11971;BME280;6045;42.682;23.294;2023-05-08T11:39:46;94654.09;;;28.87;35.33
11971;BME280;6045;42.682;23.294;2023-05-08T11:42:32;94650.31;;;29.03;35.85
11971;BME280;6045;42.682;23.294;2023-05-08T11:45:03;94648.00;;;29.05;35.90
11971;BME280;6045;42.682;23.294;2023-05-08T11:47:34;94648.84;;;29.18;35.34
11971;BME280;6045;42.682;23.294;2023-05-08T11:50:02;94637.00;;;29.30;34.76
11971;BME280;6045;42.682;23.294;2023-05-08T11:52:30;94632.97;;;28.67;36.28
11971;BME280;6045;42.682;23.294;2023-05-08T11:55:02;94635.16;;;28.61;34.36
11971;BME280;6045;42.682;23.294;2023-05-08T11:57:29;94625.34;;;28.39;37.25
11971;BME280;6045;42.682;23.294;2023-05-08T11:59:56;94623.69;;;28.59;36.41
11971;BME280;6045;42.682;23.294;2023-05-08T12:02:34;94619.97;;;28.43;37.25
11971;BME280;6045;42.682;23.294;2023-05-08T12:05:01;94627.97;;;28.36;36.70
11971;BME280;6045;42.682;23.294;2023-05-08T12:07:28;94626.47;;;28.26;37.47
11971;BME280;6045;42.682;23.294;2023-05-08T12:09:55;94617.16;;;28.07;38.31
11971;BME280;6045;42.682;23.294;2023-05-08T12:12:35;94619.78;;;28.15;37.91
11971;BME280;6045;42.682;23.294;2023-05-08T12:15:05;94626.19;;;27.87;38.39
11971;BME280;6045;42.682;23.294;2023-05-08T12:17:32;94623.69;;;27.82;38.65
11971;BME280;6045;42.682;23.294;2023-05-08T12:20:09;94619.56;;;27.55;37.68
11971;BME280;6045;42.682;23.294;2023-05-08T12:22:37;94609.75;;;27.25;39.50
11971;BME280;6045;42.682;23.294;2023-05-08T12:25:05;94614.34;;;26.91;39.65
11971;BME280;6045;42.682;23.294;2023-05-08T12:27:34;94609.16;;;26.61;41.60
11971;BME280;6045;42.682;23.294;2023-05-08T12:30:05;94612.75;;;25.98;40.20
11971;BME280;6045;42.682;23.294;2023-05-08T12:32:33;94618.28;;;25.63;40.40
11971;BME280;6045;42.682;23.294;2023-05-08T12:35:00;94608.31;;;25.59;42.80
11971;BME280;6045;42.682;23.294;2023-05-08T12:37:27;94610.22;;;25.58;41.09
11971;BME280;6045;42.682;23.294;2023-05-08T12:39:54;94607.66;;;25.70;41.38
11971;BME280;6045;42.682;23.294;2023-05-08T12:42:20;94605.22;;;25.77;42.19
11971;BME280;6045;42.682;23.294;2023-05-08T12:44:52;94620.38;;;25.75;42.14
11971;BME280;6045;42.682;23.294;2023-05-08T12:47:19;94605.72;;;25.71;42.61
11971;BME280;6045;42.682;23.294;2023-05-08T12:49:46;94603.13;;;25.40;40.43
11971;BME280;6045;42.682;23.294;2023-05-08T12:52:14;94604.09;;;25.10;43.02
11971;BME280;6045;42.682;23.294;2023-05-08T12:54:46;94610.31;;;24.76;43.67
11971;BME280;6045;42.682;23.294;2023-05-08T12:57:14;94604.75;;;24.42;43.33
11971;BME280;6045;42.682;23.294;2023-05-08T12:59:41;94601.66;;;24.35;43.60
11971;BME280;6045;42.682;23.294;2023-05-08T13:02:17;94598.22;;;24.21;43.75
11971;BME280;6045;42.682;23.294;2023-05-08T13:04:45;94603.94;;;24.41;44.65
11971;BME280;6045;42.682;23.294;2023-05-08T13:07:12;94593.00;;;24.41;45.96
11971;BME280;6045;42.682;23.294;2023-05-08T13:09:39;94589.56;;;24.27;42.94
11971;BME280;6045;42.682;23.294;2023-05-08T13:12:20;94606.44;;;24.21;44.54
11971;BME280;6045;42.682;23.294;2023-05-08T13:14:47;94610.25;;;23.89;48.02
11971;BME280;6045;42.682;23.294;2023-05-08T13:17:17;94618.16;;;23.68;50.00